Time;durP1;ratioP1;P1;durP2;ratioP2;P2;SDS_P1;SDS_P2;PMS_P1;PMS_P2;Temp;Humidity;BMP_temperature;BMP_pressure;BME280_temperature;BME280_humidity;BME280_pressure;Samples;Min_cycle;Max_cycle;Signal;HPM_P1;HPM_P2
2022/03/14 00:00:42;;;;;;;13.23;5.60;;;6.10;76.10;;;;;;5011495;28;20870;-63
2022/03/14 00:03:10;;;;;;;10.33;4.20;;;6.20;76.30;;;;;;5033522;28;20190;-65
2022/03/14 00:05:35;;;;;;;13.33;5.70;;;6.20;76.60;;;;;;5041437;28;20498;-65
2022/03/14 00:08:01;;;;;;;13.13;5.33;;;6.20;76.30;;;;;;5035578;28;20490;-65
2022/03/14 00:10:28;;;;;;;10.27;4.67;;;6.20;76.10;;;;;;5036874;28;20191;-63
2022/03/14 00:12:58;;;;;;;12.70;4.47;;;6.30;74.80;;;;;;5033679;28;20202;-64
2022/03/14 00:15:29;;;;;;;11.37;4.60;;;6.30;75.20;;;;;;5026794;28;20539;-64
2022/03/14 00:17:56;;;;;;;12.70;4.60;;;6.30;76.30;;;;;;5036514;28;20441;-65
2022/03/14 00:20:22;;;;;;;17.93;5.60;;;6.30;76.10;;;;;;5040308;28;20555;-65
2022/03/14 00:22:48;;;;;;;12.10;4.90;;;6.40;76.60;;;;;;5026084;28;21120;-64
2022/03/14 00:25:14;;;;;;;15.57;4.77;;;6.40;74.70;;;;;;5036057;28;20902;-64
2022/03/14 00:27:40;;;;;;;10.70;5.07;;;6.50;75.40;;;;;;5037969;28;20468;-65
2022/03/14 00:30:10;;;;;;;11.20;4.47;;;6.50;76.10;;;;;;5039167;28;21126;-63
2022/03/14 00:32:36;;;;;;;12.10;4.57;;;6.50;75.50;;;;;;5023231;28;20201;-65
2022/03/14 00:35:03;;;;;;;10.80;4.53;;;6.50;76.30;;;;;;5035131;28;20754;-64
2022/03/14 00:37:30;;;;;;;8.13;4.20;;;6.50;76.80;;;;;;5044560;28;20444;-63
2022/03/14 00:39:55;;;;;;;10.30;4.07;;;6.50;76.30;;;;;;5038864;28;20481;-63
2022/03/14 00:42:22;;;;;;;11.43;5.00;;;6.50;75.60;;;;;;5034611;28;20440;-63
2022/03/14 00:44:49;;;;;;;12.00;5.37;;;6.60;75.40;;;;;;5042546;28;20527;-64
2022/03/14 00:47:16;;;;;;;28.27;4.83;;;6.50;75.20;;;;;;5042835;28;21003;-65
2022/03/14 00:49:42;;;;;;;13.53;5.03;;;6.60;75.70;;;;;;5035041;28;20975;-65
2022/03/14 00:52:08;;;;;;;11.83;4.93;;;6.60;75.40;;;;;;5042820;28;20420;-64
2022/03/14 00:54:34;;;;;;;19.20;5.30;;;6.60;75.00;;;;;;5035869;28;20443;-64
2022/03/14 00:57:00;;;;;;;12.33;4.90;;;6.60;75.20;;;;;;5033612;28;20195;-65
2022/03/14 00:59:27;;;;;;;13.20;4.80;;;6.60;75.40;;;;;;5042595;28;20259;-64
2022/03/14 01:01:53;;;;;;;9.03;3.97;;;6.60;75.50;;;;;;5038443;28;20614;-64
2022/03/14 01:04:19;;;;;;;14.43;5.67;;;6.70;74.80;;;;;;5037881;28;20436;-64
2022/03/14 01:06:45;;;;;;;14.67;5.43;;;6.70;75.40;;;;;;5042566;28;20439;-65
2022/03/14 01:09:11;;;;;;;14.93;5.40;;;6.70;74.80;;;;;;5041990;28;20213;-65
2022/03/14 01:11:37;;;;;;;12.60;6.13;;;6.70;75.20;;;;;;5039947;28;20186;-64
2022/03/14 01:14:04;;;;;;;17.50;7.53;;;6.90;78.10;;;;;;5033644;28;20443;-62
2022/03/14 01:16:29;;;;;;;21.53;7.13;;;7.30;80.90;;;;;;5022347;28;20428;-64
2022/03/14 01:18:55;;;;;;;18.03;7.73;;;7.50;81.70;;;;;;5033988;28;20472;-65
2022/03/14 01:21:21;;;;;;;15.97;7.63;;;7.70;82.30;;;;;;5032914;28;20544;-64
2022/03/14 01:23:46;;;;;;;16.97;9.00;;;7.80;84.20;;;;;;5033602;28;20733;-65
2022/03/14 01:26:12;;;;;;;22.23;9.50;;;8.00;85.70;;;;;;5032109;28;20190;-65
2022/03/14 01:28:38;;;;;;;17.73;7.37;;;7.90;86.50;;;;;;5031771;28;20221;-65
2022/03/14 01:31:04;;;;;;;17.17;8.17;;;8.00;87.70;;;;;;5032969;28;20198;-63
2022/03/14 01:33:29;;;;;;;17.50;7.20;;;7.90;87.60;;;;;;5028713;28;20697;-65
2022/03/14 01:35:55;;;;;;;24.17;9.10;;;8.00;87.10;;;;;;5031578;28;21138;-65
2022/03/14 01:38:21;;;;;;;20.40;8.33;;;8.00;87.60;;;;;;5015883;28;20214;-65
2022/03/14 01:40:47;;;;;;;19.33;8.53;;;8.00;88.40;;;;;;5034699;28;20205;-64
2022/03/14 01:43:13;;;;;;;18.30;9.57;;;8.00;90.50;;;;;;5033488;28;20972;-64
2022/03/14 01:45:39;;;;;;;16.50;8.40;;;8.00;92.00;;;;;;5032578;28;20190;-65
2022/03/14 01:48:06;;;;;;;17.23;8.50;;;8.00;93.00;;;;;;5024927;28;20846;-65
2022/03/14 01:50:33;;;;;;;20.37;9.80;;;8.10;93.70;;;;;;5037459;28;20570;-65
2022/03/14 01:52:59;;;;;;;17.57;8.70;;;8.20;94.50;;;;;;5035173;28;20452;-64
2022/03/14 01:55:25;;;;;;;20.53;7.13;;;8.30;94.80;;;;;;5036224;28;20796;-65
2022/03/14 01:57:51;;;;;;;17.87;7.50;;;8.30;95.40;;;;;;5033753;28;20201;-65
2022/03/14 02:00:16;;;;;;;13.87;7.20;;;8.30;95.70;;;;;;5038021;28;21227;-63
2022/03/14 02:02:43;;;;;;;15.40;7.70;;;8.30;96.40;;;;;;5039526;28;20197;-66
2022/03/14 02:05:09;;;;;;;14.50;7.17;;;8.30;96.50;;;;;;5041204;28;20204;-65
2022/03/14 02:07:34;;;;;;;15.43;6.63;;;8.40;96.80;;;;;;5033376;28;20436;-63
2022/03/14 02:10:00;;;;;;;15.87;7.23;;;8.30;96.80;;;;;;5039007;28;20304;-66
2022/03/14 02:12:26;;;;;;;20.07;8.60;;;8.40;96.90;;;;;;5036193;28;20197;-64
2022/03/14 02:14:52;;;;;;;17.73;7.97;;;8.40;97.10;;;;;;5010229;28;20443;-64
2022/03/14 02:17:21;;;;;;;16.03;7.60;;;8.40;97.30;;;;;;5034737;28;20194;-64
2022/03/14 02:19:47;;;;;;;15.17;8.57;;;8.40;97.60;;;;;;5034970;28;20234;-65
2022/03/14 02:22:14;;;;;;;15.93;8.10;;;8.40;97.60;;;;;;5032302;28;20469;-64
2022/03/14 02:24:44;;;;;;;12.90;7.30;;;8.30;97.70;;;;;;5032319;28;20633;-64
2022/03/14 02:27:11;;;;;;;17.07;6.80;;;8.30;97.90;;;;;;5032162;28;20979;-65
2022/03/14 02:29:39;;;;;;;13.93;6.03;;;8.30;97.90;;;;;;5034339;28;20456;-65
2022/03/14 02:32:05;;;;;;;14.53;5.53;;;8.30;98.10;;;;;;5036328;28;20465;-63
2022/03/14 02:34:32;;;;;;;14.23;6.60;;;8.20;99.10;;;;;;5036224;28;20444;-62
2022/03/14 02:36:57;;;;;;;11.80;6.27;;;8.10;99.80;;;;;;5032952;28;20546;-64
2022/03/14 02:39:24;;;;;;;12.73;6.10;;;8.00;99.90;;;;;;5026774;28;21214;-64
2022/03/14 02:41:50;;;;;;;17.70;6.90;;;7.80;99.90;;;;;;5035211;28;20649;-63
2022/03/14 02:44:16;;;;;;;16.60;7.10;;;7.70;99.90;;;;;;5041417;28;20461;-65
2022/03/14 02:46:42;;;;;;;14.33;6.80;;;7.60;99.90;;;;;;5043343;28;20468;-65
2022/03/14 02:49:09;;;;;;;12.43;6.70;;;7.50;99.90;;;;;;5039499;28;20464;-62
2022/03/14 02:51:40;;;;;;;15.80;7.07;;;7.40;99.90;;;;;;5041502;28;20440;-62
2022/03/14 02:54:09;;;;;;;14.73;6.03;;;7.40;99.90;;;;;;5019976;28;20441;-63
2022/03/14 02:56:40;;;;;;;9.70;5.37;;;7.30;99.90;;;;;;5036462;28;20448;-64
2022/03/14 02:59:07;;;;;;;12.37;5.33;;;7.30;99.90;;;;;;5032014;28;20504;-64
2022/03/14 03:01:34;;;;;;;10.10;4.63;;;7.30;99.90;;;;;;5037612;28;21161;-63
2022/03/14 03:03:59;;;;;;;11.83;4.93;;;7.20;99.90;;;;;;5044037;28;20420;-63
2022/03/14 03:06:25;;;;;;;12.47;4.73;;;7.20;99.90;;;;;;5039086;28;20443;-63
2022/03/14 03:08:52;;;;;;;8.70;3.27;;;7.10;99.90;;;;;;5034934;28;20244;-64
2022/03/14 03:11:19;;;;;;;5.40;3.53;;;7.10;99.90;;;;;;5033825;28;20447;-64
2022/03/14 03:13:47;;;;;;;6.20;3.80;;;7.00;99.90;;;;;;5025977;28;20580;-61
2022/03/14 03:16:14;;;;;;;5.03;2.63;;;7.00;99.90;;;;;;5033192;28;20468;-64
2022/03/14 03:18:40;;;;;;;6.07;3.90;;;6.90;99.90;;;;;;5037397;28;20477;-62
2022/03/14 03:21:06;;;;;;;6.20;2.73;;;6.90;99.90;;;;;;5034713;28;21179;-63
2022/03/14 03:23:34;;;;;;;2.67;1.60;;;6.90;99.90;;;;;;5035886;28;20182;-63
2022/03/14 03:26:00;;;;;;;4.33;1.27;;;6.90;99.90;;;;;;5032413;28;20189;-62
2022/03/14 03:28:26;;;;;;;1.60;1.00;;;6.80;99.90;;;;;;5037215;28;20820;-63
2022/03/14 03:30:52;;;;;;;1.93;0.70;;;6.80;99.90;;;;;;5038727;28;21009;-64
2022/03/14 03:33:18;;;;;;;1.40;0.50;;;6.80;99.90;;;;;;5036666;28;20186;-63
2022/03/14 03:35:43;;;;;;;3.20;0.90;;;6.80;99.90;;;;;;5030485;28;20460;-62
2022/03/14 03:38:09;;;;;;;1.80;0.77;;;6.80;99.90;;;;;;5033647;28;20198;-64
2022/03/14 03:40:35;;;;;;;1.20;0.50;;;6.70;99.90;;;;;;5032388;28;20626;-63
2022/03/14 03:43:00;;;;;;;1.50;0.63;;;6.70;99.90;;;;;;5014246;28;20183;-63
2022/03/14 03:45:26;;;;;;;2.07;0.80;;;6.60;99.90;;;;;;5039152;28;20221;-64
2022/03/14 03:47:53;;;;;;;1.40;0.70;;;6.70;99.90;;;;;;5033355;28;20634;-63
2022/03/14 03:50:20;;;;;;;1.27;0.50;;;6.60;99.90;;;;;;5017324;28;20186;-62
2022/03/14 03:52:46;;;;;;;1.33;0.60;;;6.60;99.90;;;;;;5037792;28;20480;-63
2022/03/14 03:55:11;;;;;;;2.93;0.70;;;6.50;99.90;;;;;;5035431;28;20917;-63
2022/03/14 03:57:37;;;;;;;1.20;0.57;;;6.50;99.90;;;;;;5030579;28;20499;-64
2022/03/14 04:00:04;;;;;;;1.40;0.50;;;6.50;99.90;;;;;;5032465;28;20571;-64
2022/03/14 04:02:36;;;;;;;1.30;0.50;;;6.50;99.90;;;;;;5018134;28;20329;-64
2022/03/14 04:05:02;;;;;;;7.90;0.63;;;6.50;99.90;;;;;;5043042;28;20463;-63
2022/03/14 04:07:29;;;;;;;1.40;0.50;;;6.40;99.90;;;;;;5046268;28;21222;-65
2022/03/14 04:09:58;;;;;;;1.60;0.93;;;6.40;99.90;;;;;;5039293;28;20463;-64
2022/03/14 04:12:28;;;;;;;2.17;0.67;;;6.40;99.90;;;;;;5039393;28;20425;-63
2022/03/14 04:14:56;;;;;;;1.47;0.60;;;6.40;99.90;;;;;;5030436;28;20425;-61
2022/03/14 04:17:25;;;;;;;1.30;0.60;;;6.40;99.90;;;;;;5030751;28;20437;-63
2022/03/14 04:19:52;;;;;;;1.40;0.60;;;6.40;99.90;;;;;;5034514;28;21152;-63
2022/03/14 04:22:20;;;;;;;1.43;0.60;;;6.30;99.90;;;;;;5042240;28;21002;-64
2022/03/14 04:24:46;;;;;;;1.30;0.60;;;6.30;99.90;;;;;;5036950;28;20436;-63
2022/03/14 04:27:11;;;;;;;1.20;0.50;;;6.40;99.90;;;;;;5041192;28;20484;-63
2022/03/14 04:29:37;;;;;;;1.40;0.60;;;6.40;99.90;;;;;;5034098;28;20212;-65
2022/03/14 04:32:03;;;;;;;1.93;0.90;;;6.40;99.90;;;;;;5034910;28;20679;-63
2022/03/14 04:34:29;;;;;;;1.20;0.53;;;6.40;99.90;;;;;;5031009;28;20218;-62
2022/03/14 04:36:55;;;;;;;1.50;0.70;;;6.50;99.90;;;;;;5031528;28;21081;-65
2022/03/14 04:39:21;;;;;;;1.20;0.50;;;6.50;99.90;;;;;;5038290;28;20704;-63
2022/03/14 04:41:47;;;;;;;1.30;0.50;;;6.50;99.90;;;;;;5031332;28;20289;-64
2022/03/14 04:44:13;;;;;;;1.40;0.60;;;6.50;99.90;;;;;;5035095;28;20516;-62
2022/03/14 04:46:39;;;;;;;1.87;0.70;;;6.40;99.90;;;;;;5039091;28;20196;-64
2022/03/14 04:49:04;;;;;;;1.30;0.57;;;6.40;99.90;;;;;;5033910;28;20449;-61
2022/03/14 04:51:33;;;;;;;1.53;0.70;;;6.50;99.90;;;;;;5038391;28;20200;-63
2022/03/14 04:53:59;;;;;;;1.60;0.70;;;6.50;99.90;;;;;;5034762;28;20300;-64
2022/03/14 04:56:25;;;;;;;1.17;0.50;;;6.50;99.90;;;;;;5038481;28;20472;-63
2022/03/14 04:58:51;;;;;;;1.40;0.70;;;6.40;99.90;;;;;;5029446;28;20958;-64
2022/03/14 05:01:21;;;;;;;1.20;0.50;;;6.40;99.90;;;;;;5033029;28;20203;-64
2022/03/14 05:03:46;;;;;;;1.70;0.73;;;6.30;99.90;;;;;;5039108;28;20256;-63
2022/03/14 05:06:12;;;;;;;1.20;0.50;;;6.30;99.90;;;;;;5036506;28;20460;-62
2022/03/14 05:08:38;;;;;;;1.70;0.60;;;6.30;99.90;;;;;;5036856;28;20288;-63
2022/03/14 05:11:04;;;;;;;1.37;0.50;;;6.30;99.90;;;;;;5027587;28;20223;-63
2022/03/14 05:13:30;;;;;;;1.30;0.70;;;6.30;99.90;;;;;;5033137;28;20684;-63
2022/03/14 05:15:56;;;;;;;1.40;0.70;;;6.20;99.90;;;;;;5031130;28;20433;-65
2022/03/14 05:18:22;;;;;;;1.60;0.67;;;6.20;99.90;;;;;;5030692;28;20456;-62
2022/03/14 05:20:47;;;;;;;1.67;0.90;;;6.10;99.90;;;;;;5034350;28;20989;-64
2022/03/14 05:23:13;;;;;;;1.20;0.60;;;6.10;99.90;;;;;;5035408;28;20266;-65
2022/03/14 05:25:39;;;;;;;1.63;0.80;;;6.00;99.90;;;;;;5031560;28;20179;-67
2022/03/14 05:28:04;;;;;;;1.40;0.60;;;5.90;99.90;;;;;;5041447;28;20198;-61
2022/03/14 05:30:30;;;;;;;1.30;0.60;;;5.90;99.90;;;;;;5033746;28;20281;-63
2022/03/14 05:32:56;;;;;;;1.50;0.60;;;5.90;99.90;;;;;;5036013;28;20201;-64
2022/03/14 05:35:21;;;;;;;1.20;0.53;;;5.90;99.90;;;;;;5021573;28;20214;-64
2022/03/14 05:37:48;;;;;;;1.47;0.60;;;5.90;99.90;;;;;;5032917;28;20871;-64
2022/03/14 05:40:16;;;;;;;1.97;0.70;;;5.90;99.90;;;;;;5029019;28;20281;-63
2022/03/14 05:42:43;;;;;;;1.40;0.60;;;6.00;99.90;;;;;;5036803;28;20444;-64
2022/03/14 05:45:09;;;;;;;1.20;0.50;;;6.00;99.90;;;;;;5041253;28;20582;-63
2022/03/14 05:47:35;;;;;;;1.90;0.80;;;6.00;99.90;;;;;;5034596;28;20905;-64
2022/03/14 05:50:01;;;;;;;1.50;0.90;;;6.00;99.90;;;;;;5036797;28;20460;-63
2022/03/14 05:52:27;;;;;;;1.53;0.73;;;6.00;99.90;;;;;;5036104;28;20978;-63
2022/03/14 05:54:53;;;;;;;1.50;0.67;;;6.10;99.90;;;;;;5036299;28;20608;-66
2022/03/14 05:57:19;;;;;;;3.57;0.50;;;6.10;99.90;;;;;;5041269;28;20479;-66
2022/03/14 05:59:44;;;;;;;1.30;0.50;;;6.10;99.90;;;;;;5042336;28;20213;-66
2022/03/14 06:02:10;;;;;;;2.37;0.70;;;6.10;99.90;;;;;;5040978;28;20853;-66
2022/03/14 06:04:37;;;;;;;1.30;0.57;;;6.10;99.90;;;;;;5036188;28;20566;-65
2022/03/14 06:07:03;;;;;;;1.20;0.70;;;6.20;99.90;;;;;;5016689;28;20193;-66
2022/03/14 06:09:29;;;;;;;2.60;0.70;;;6.20;99.90;;;;;;5040381;28;20472;-67
2022/03/14 06:11:55;;;;;;;1.27;0.60;;;6.20;99.90;;;;;;5043017;28;20186;-66
2022/03/14 06:14:21;;;;;;;1.20;0.50;;;6.20;99.90;;;;;;5030835;28;20440;-63
2022/03/14 06:16:46;;;;;;;1.20;0.50;;;6.20;99.90;;;;;;5025212;28;20190;-64
2022/03/14 06:19:12;;;;;;;1.30;0.60;;;6.20;99.90;;;;;;5034999;28;20213;-64
2022/03/14 06:21:39;;;;;;;1.37;0.60;;;6.10;99.90;;;;;;5041153;28;20183;-63
2022/03/14 06:24:05;;;;;;;1.60;0.60;;;6.20;99.90;;;;;;5034651;28;20696;-63
2022/03/14 06:26:34;;;;;;;1.50;0.70;;;6.20;99.90;;;;;;5038203;28;20497;-63
2022/03/14 06:29:00;;;;;;;1.30;0.50;;;6.20;99.90;;;;;;5032697;28;20460;-65
2022/03/14 06:31:26;;;;;;;1.30;0.60;;;6.20;99.90;;;;;;5030719;28;20524;-64
2022/03/14 06:33:52;;;;;;;1.40;0.60;;;6.10;99.90;;;;;;5038094;28;20432;-63
2022/03/14 06:36:18;;;;;;;1.30;0.67;;;6.10;99.90;;;;;;5031425;28;20429;-66
2022/03/14 06:38:44;;;;;;;1.93;0.80;;;6.20;99.90;;;;;;5027481;28;20652;-62
2022/03/14 06:41:11;;;;;;;1.27;0.60;;;6.10;99.90;;;;;;5006512;28;20326;-63
2022/03/14 06:43:37;;;;;;;1.80;0.80;;;6.10;99.90;;;;;;5029144;28;20429;-64
2022/03/14 06:46:04;;;;;;;2.07;0.90;;;6.10;99.90;;;;;;5026499;28;20425;-63
2022/03/14 06:48:30;;;;;;;1.40;0.80;;;6.10;99.90;;;;;;5026721;28;20452;-64
2022/03/14 06:50:56;;;;;;;1.30;0.60;;;6.10;99.90;;;;;;5026913;28;20428;-62
2022/03/14 06:53:22;;;;;;;1.37;0.60;;;6.10;99.90;;;;;;5038187;28;20472;-63
2022/03/14 06:55:48;;;;;;;1.20;0.60;;;6.20;99.90;;;;;;5032754;28;20200;-63
2022/03/14 06:58:14;;;;;;;2.13;0.87;;;6.10;99.90;;;;;;5037777;28;20237;-63
2022/03/14 07:00:40;;;;;;;2.50;1.00;;;6.10;99.90;;;;;;5029605;28;20879;-65
2022/03/14 07:03:05;;;;;;;1.53;0.70;;;6.00;99.90;;;;;;5036639;28;20320;-64
2022/03/14 07:05:31;;;;;;;3.20;0.77;;;6.10;99.90;;;;;;5030645;28;20424;-64
2022/03/14 07:07:57;;;;;;;2.47;0.87;;;6.20;99.90;;;;;;5039379;28;20276;-64
2022/03/14 07:10:22;;;;;;;1.30;0.60;;;6.30;99.90;;;;;;5030667;28;20193;-65
2022/03/14 07:12:50;;;;;;;1.50;0.80;;;6.50;99.90;;;;;;5036851;28;20661;-65
2022/03/14 07:15:21;;;;;;;1.73;1.00;;;6.70;99.90;;;;;;5038451;28;20185;-64
2022/03/14 07:17:47;;;;;;;2.10;0.73;;;6.80;99.90;;;;;;5036007;28;20503;-64
2022/03/14 07:20:13;;;;;;;1.10;0.50;;;6.80;99.90;;;;;;5025506;28;20465;-65
2022/03/14 07:22:53;;;;;;;1.93;0.63;;;6.80;99.90;;;;;;5036810;28;20437;-65
2022/03/14 07:25:21;;;;;;;3.47;0.93;;;6.90;99.90;;;;;;5037833;28;20472;-63
2022/03/14 07:27:46;;;;;;;1.43;0.60;;;7.10;99.90;;;;;;5038547;28;20455;-64
2022/03/14 07:30:12;;;;;;;1.50;0.60;;;7.30;99.90;;;;;;5039757;28;20467;-66
2022/03/14 07:32:38;;;;;;;1.50;0.70;;;7.30;99.90;;;;;;5037283;28;20193;-66
2022/03/14 07:35:04;;;;;;;2.00;0.70;;;7.50;99.90;;;;;;5029295;28;20189;-66
2022/03/14 07:37:29;;;;;;;1.90;0.67;;;7.80;99.90;;;;;;5032304;28;20218;-65
2022/03/14 07:39:55;;;;;;;1.50;0.63;;;8.30;99.90;;;;;;5038845;28;20472;-65
2022/03/14 07:42:20;;;;;;;5.63;0.90;;;9.00;99.90;;;;;;5017087;28;20198;-63
2022/03/14 07:44:48;;;;;;;3.57;0.57;;;9.70;99.30;;;;;;5031312;28;20216;-64
2022/03/14 07:47:14;;;;;;;1.80;0.60;;;10.10;97.60;;;;;;5033073;28;20179;-65
2022/03/14 07:49:39;;;;;;;1.90;0.60;;;10.60;96.70;;;;;;5037408;28;20486;-65
2022/03/14 07:52:06;;;;;;;2.40;0.70;;;10.80;96.00;;;;;;5034655;28;20269;-66
2022/03/14 07:54:32;;;;;;;3.57;0.60;;;10.90;95.50;;;;;;5038562;28;20241;-65
2022/03/14 07:56:58;;;;;;;1.70;0.67;;;11.10;94.50;;;;;;5039743;28;20433;-65
2022/03/14 07:59:24;;;;;;;1.70;0.77;;;11.50;93.30;;;;;;5038985;28;21006;-65
2022/03/14 08:01:49;;;;;;;1.50;0.80;;;11.10;94.20;;;;;;5036333;28;20536;-65
2022/03/14 08:04:15;;;;;;;1.30;0.60;;;10.30;94.40;;;;;;5036944;28;20236;-64
2022/03/14 08:06:43;;;;;;;1.87;0.60;;;9.50;95.40;;;;;;5033302;28;20210;-66
2022/03/14 08:09:09;;;;;;;1.20;0.50;;;9.30;96.70;;;;;;5031778;28;20198;-65
2022/03/14 08:11:38;;;;;;;1.40;0.60;;;9.40;96.40;;;;;;5037458;28;20443;-66
2022/03/14 08:14:04;;;;;;;1.87;0.60;;;9.30;96.10;;;;;;5025284;28;20437;-66
2022/03/14 08:16:29;;;;;;;4.23;0.63;;;9.20;96.40;;;;;;5026052;28;20452;-65
2022/03/14 08:18:55;;;;;;;1.40;0.70;;;8.80;97.00;;;;;;5021068;28;20551;-64
2022/03/14 08:21:21;;;;;;;2.03;0.77;;;8.60;96.90;;;;;;5033901;28;20178;-66
2022/03/14 08:23:47;;;;;;;6.97;1.27;;;8.30;97.10;;;;;;5033317;28;20641;-64
2022/03/14 08:26:13;;;;;;;2.70;0.80;;;8.20;97.50;;;;;;5036424;28;20870;-65
2022/03/14 08:28:41;;;;;;;3.43;1.00;;;8.00;97.90;;;;;;5012922;28;20517;-65
2022/03/14 08:31:06;;;;;;;1.20;0.50;;;7.90;99.10;;;;;;5034657;28;20247;-65
2022/03/14 08:33:33;;;;;;;1.77;0.57;;;7.90;99.50;;;;;;5037911;28;20435;-65
2022/03/14 08:36:01;;;;;;;1.40;0.70;;;7.90;98.90;;;;;;5034562;28;20272;-64
2022/03/14 08:38:28;;;;;;;1.93;0.57;;;8.00;98.80;;;;;;5038591;28;20444;-64
2022/03/14 08:40:53;;;;;;;3.97;0.90;;;8.40;98.90;;;;;;5035266;28;20468;-66
2022/03/14 08:43:19;;;;;;;9.53;0.80;;;8.70;98.10;;;;;;5034061;28;20429;-65
2022/03/14 08:45:45;;;;;;;3.27;0.60;;;8.60;98.00;;;;;;5031802;28;20191;-67
2022/03/14 08:48:12;;;;;;;3.10;0.80;;;8.60;97.30;;;;;;5040129;28;20667;-63
2022/03/14 08:50:40;;;;;;;1.93;0.77;;;8.70;97.10;;;;;;5035105;28;20196;-67
2022/03/14 08:53:05;;;;;;;2.13;0.70;;;8.70;97.10;;;;;;5034246;28;20433;-64
2022/03/14 08:55:31;;;;;;;4.20;0.60;;;8.40;95.70;;;;;;5034754;28;20435;-65
2022/03/14 08:57:56;;;;;;;6.70;0.73;;;8.30;96.60;;;;;;5031292;28;20832;-65
2022/03/14 09:00:24;;;;;;;2.40;0.80;;;8.10;96.80;;;;;;5025149;28;20218;-66
2022/03/14 09:02:50;;;;;;;1.20;0.60;;;7.90;97.30;;;;;;5046136;28;20220;-64
2022/03/14 09:05:17;;;;;;;1.50;0.70;;;7.80;97.20;;;;;;5044178;28;20428;-65
2022/03/14 09:07:43;;;;;;;1.40;0.60;;;8.10;97.40;;;;;;5028116;28;20429;-65
2022/03/14 09:10:12;;;;;;;2.70;0.60;;;9.00;97.50;;;;;;5042700;28;20454;-66
2022/03/14 09:12:39;;;;;;;3.00;1.33;;;10.00;94.30;;;;;;5034093;28;20190;-65
2022/03/14 09:15:07;;;;;;;1.30;0.50;;;10.50;93.80;;;;;;5039970;28;20538;-64
2022/03/14 09:17:35;;;;;;;2.70;0.87;;;11.00;92.60;;;;;;5039546;28;20611;-67
2022/03/14 09:20:01;;;;;;;1.70;0.60;;;11.80;90.10;;;;;;5043910;28;20471;-66
2022/03/14 09:22:28;;;;;;;2.00;0.90;;;11.90;90.40;;;;;;5039581;28;20523;-65
2022/03/14 09:24:55;;;;;;;2.07;0.97;;;12.00;88.50;;;;;;5040023;28;20424;-66
2022/03/14 09:27:21;;;;;;;2.00;1.07;;;11.80;87.60;;;;;;5037331;28;21007;-65
2022/03/14 09:29:47;;;;;;;2.47;0.83;;;11.90;86.10;;;;;;5035364;28;20480;-66
2022/03/14 09:32:13;;;;;;;1.60;0.60;;;11.90;89.10;;;;;;5040590;28;20466;-66
2022/03/14 09:34:40;;;;;;;2.77;1.00;;;12.10;86.70;;;;;;5042212;28;20572;-65
2022/03/14 09:37:06;;;;;;;3.33;1.07;;;11.70;85.90;;;;;;5040803;28;20432;-67
2022/03/14 09:39:32;;;;;;;1.60;0.60;;;11.40;86.40;;;;;;5040341;28;20471;-65
2022/03/14 09:42:00;;;;;;;2.50;1.07;;;11.20;87.10;;;;;;5039495;28;20300;-66
2022/03/14 09:44:28;;;;;;;1.20;0.50;;;10.70;88.30;;;;;;5040286;28;20432;-65
2022/03/14 09:46:58;;;;;;;1.23;0.53;;;10.50;89.20;;;;;;5033762;28;20436;-65
2022/03/14 09:49:26;;;;;;;1.40;0.60;;;10.30;89.90;;;;;;5031024;28;20453;-66
2022/03/14 09:51:54;;;;;;;3.63;0.93;;;10.30;89.80;;;;;;5042998;28;20459;-66
2022/03/14 09:54:21;;;;;;;2.47;0.70;;;10.30;90.10;;;;;;5042457;28;20427;-65
2022/03/14 09:56:48;;;;;;;3.30;0.90;;;10.30;89.70;;;;;;5044578;28;20430;-65
2022/03/14 09:59:14;;;;;;;4.27;0.50;;;10.30;86.80;;;;;;5044110;28;20467;-65
2022/03/14 10:01:41;;;;;;;1.80;0.80;;;10.40;87.50;;;;;;5043495;28;20459;-65
2022/03/14 10:04:08;;;;;;;2.30;0.63;;;10.40;86.40;;;;;;5039175;28;20470;-64
2022/03/14 10:06:38;;;;;;;3.47;0.80;;;10.50;85.20;;;;;;5036800;28;20467;-66
2022/03/14 10:09:04;;;;;;;1.30;0.50;;;10.20;84.30;;;;;;5030140;28;20449;-65
2022/03/14 10:11:30;;;;;;;5.53;1.37;;;10.00;87.40;;;;;;5019437;28;21080;-65
2022/03/14 10:13:56;;;;;;;3.60;0.80;;;10.00;88.40;;;;;;5030191;28;20190;-65
2022/03/14 10:16:21;;;;;;;1.77;0.70;;;10.20;86.90;;;;;;5036250;28;20277;-65
2022/03/14 10:19:02;;;;;;;3.00;0.80;;;10.60;89.00;;;;;;5022608;28;20564;-64
2022/03/14 10:21:35;;;;;;;2.63;1.20;;;10.90;84.40;;;;;;5028812;28;20932;-66
2022/03/14 10:24:07;;;;;;;4.57;1.47;;;11.00;83.10;;;;;;5025476;28;20456;-66
2022/03/14 10:26:34;;;;;;;1.90;0.90;;;11.00;84.80;;;;;;5007660;28;20433;-65
2022/03/14 10:29:03;;;;;;;3.63;0.93;;;11.20;80.70;;;;;;5034804;28;20586;-66
2022/03/14 10:31:34;;;;;;;1.90;0.73;;;11.20;82.50;;;;;;5031144;28;20441;-65
2022/03/14 10:34:08;;;;;;;3.00;0.80;;;11.00;82.00;;;;;;5029186;28;20436;-65
2022/03/14 10:36:49;;;;;;;5.97;1.53;;;11.10;83.40;;;;;;5025712;28;20437;-66
2022/03/14 10:39:19;;;;;;;2.90;1.20;;;11.20;80.70;;;;;;5026435;28;20476;-66
2022/03/14 10:41:48;;;;;;;2.00;0.77;;;11.30;83.10;;;;;;5032941;28;20441;-65
2022/03/14 10:44:24;;;;;;;3.63;0.83;;;11.40;81.90;;;;;;5006488;28;20528;-66
2022/03/14 10:46:49;;;;;;;9.90;0.90;;;11.30;81.70;;;;;;5027785;28;20958;-66
2022/03/14 10:49:16;;;;;;;2.63;1.20;;;11.40;84.40;;;;;;5035776;28;20460;-65
2022/03/14 10:51:56;;;;;;;9.67;1.17;;;11.50;84.70;;;;;;5026344;28;20190;-64
2022/03/14 10:54:21;;;;;;;2.83;0.57;;;11.70;81.90;;;;;;5025683;28;21066;-65
2022/03/14 10:57:13;;;;;;;7.23;1.00;;;11.70;83.00;;;;;;5021074;28;20438;-64
2022/03/14 10:59:44;;;;;;;11.57;0.97;;;11.70;82.70;;;;;;5024502;28;20280;-66
2022/03/14 11:02:22;;;;;;;2.07;0.70;;;11.50;80.30;;;;;;5025988;28;20409;-65
2022/03/14 11:04:52;;;;;;;4.40;0.90;;;11.60;82.70;;;;;;5031860;28;20443;-65
2022/03/14 11:07:20;;;;;;;2.33;0.70;;;11.70;82.40;;;;;;5029834;28;20991;-66
2022/03/14 11:09:50;;;;;;;6.80;1.20;;;11.90;81.70;;;;;;5026364;28;21045;-66
2022/03/14 11:12:18;;;;;;;2.27;0.73;;;12.20;79.00;;;;;;5021271;28;20531;-65
2022/03/14 11:15:00;;;;;;;2.07;0.60;;;12.50;79.60;;;;;;5031695;28;20567;-65
2022/03/14 11:17:33;;;;;;;2.23;0.90;;;12.80;77.40;;;;;;5037699;28;20424;-66
2022/03/14 11:19:59;;;;;;;4.43;0.70;;;13.10;75.10;;;;;;5033990;28;21066;-65
2022/03/14 11:22:28;;;;;;;5.10;1.17;;;13.00;74.00;;;;;;5033265;28;20447;-66
2022/03/14 11:24:56;;;;;;;7.00;0.70;;;12.90;76.60;;;;;;5036684;28;20562;-66
2022/03/14 11:27:28;;;;;;;2.40;0.90;;;12.80;76.00;;;;;;5033579;28;20404;-66
2022/03/14 11:30:09;;;;;;;13.73;1.50;;;12.70;75.80;;;;;;5028718;28;20221;-66
2022/03/14 11:32:41;;;;;;;2.80;0.77;;;12.70;75.20;;;;;;5031623;28;20437;-66
2022/03/14 11:35:08;;;;;;;5.00;0.90;;;12.90;73.90;;;;;;5017414;28;20443;-68
2022/03/14 11:37:34;;;;;;;2.70;0.80;;;13.00;73.80;;;;;;5030897;28;20429;-66
2022/03/14 11:40:02;;;;;;;2.07;0.90;;;13.10;73.70;;;;;;5030972;28;21007;-65
2022/03/14 11:42:28;;;;;;;2.17;0.80;;;12.80;73.10;;;;;;5028114;28;21192;-66
2022/03/14 11:44:54;;;;;;;2.90;0.50;;;12.80;74.20;;;;;;5036257;28;20945;-66
2022/03/14 11:47:22;;;;;;;1.40;0.50;;;12.90;71.10;;;;;;5035717;28;20186;-65
2022/03/14 11:49:48;;;;;;;1.60;0.70;;;12.90;69.60;;;;;;5038513;28;20443;-66
2022/03/14 11:52:19;;;;;;;3.67;0.80;;;12.50;70.80;;;;;;5030718;28;20515;-63
2022/03/14 11:55:16;;;;;;;3.60;0.87;;;12.20;73.20;;;;;;5034198;28;20452;-66
2022/03/14 11:57:43;;;;;;;3.70;1.30;;;12.20;72.70;;;;;;5035988;28;20424;-65
2022/03/14 12:00:21;;;;;;;2.60;1.03;;;12.40;73.50;;;;;;5037909;28;20493;-66
2022/03/14 12:02:52;;;;;;;4.33;1.57;;;12.50;72.10;;;;;;5031083;28;20420;-66
2022/03/14 12:05:31;;;;;;;4.00;1.07;;;12.40;72.60;;;;;;5040659;28;20420;-66
2022/03/14 12:08:01;;;;;;;1.73;0.77;;;12.60;71.20;;;;;;5043351;28;20415;-66
2022/03/14 12:10:28;;;;;;;3.83;0.70;;;12.70;70.90;;;;;;5038250;28;20417;-66
2022/03/14 12:12:54;;;;;;;6.50;1.20;;;12.80;69.70;;;;;;5043224;28;20412;-65
2022/03/14 12:15:48;;;;;;;1.93;0.73;;;12.90;70.40;;;;;;5034971;28;20756;-66
2022/03/14 12:18:23;;;;;;;8.00;0.90;;;12.90;69.90;;;;;;5029548;28;20429;-66
2022/03/14 12:20:52;;;;;;;5.87;1.20;;;12.70;68.70;;;;;;5025507;28;20580;-66
2022/03/14 12:23:26;;;;;;;3.67;1.27;;;12.50;70.10;;;;;;5034270;28;20420;-66
2022/03/14 12:25:52;;;;;;;2.40;0.80;;;12.60;70.80;;;;;;5042237;28;21025;-64
2022/03/14 12:28:36;;;;;;;1.70;0.80;;;12.40;69.00;;;;;;5030291;28;20456;-65
2022/03/14 12:31:04;;;;;;;1.80;0.70;;;12.20;69.70;;;;;;5039061;28;21014;-65
2022/03/14 12:33:31;;;;;;;3.53;0.80;;;12.40;70.40;;;;;;5036993;28;20431;-66
2022/03/14 12:35:57;;;;;;;4.73;1.10;;;13.00;71.70;;;;;;5039744;28;20816;-66
2022/03/14 12:38:23;;;;;;;2.20;0.83;;;13.30;67.90;;;;;;5031745;28;20440;-66
2022/03/14 12:40:51;;;;;;;1.30;0.50;;;13.50;69.30;;;;;;5036333;28;20465;-65
2022/03/14 12:43:31;;;;;;;1.70;0.80;;;13.30;68.40;;;;;;5038946;28;20190;-67
2022/03/14 12:45:58;;;;;;;1.90;0.70;;;13.40;67.40;;;;;;5044123;28;20901;-65
2022/03/14 12:48:31;;;;;;;2.27;0.63;;;13.50;70.10;;;;;;5035120;28;20895;-65
2022/03/14 12:51:07;;;;;;;1.30;0.50;;;13.70;66.60;;;;;;5025609;28;20448;-68